Terminal Aerodrome Forecast
Issued by NWS

Home | Current Version | Previous Version | Graphics & Text | Print | Product List | Glossary Off
Versions: 1 2 3 4 5 6 7 8 9 10 11 12 13 14 15 16

000
FTUS43 KICT 021720
TAFHUT
TAF
KHUT 021720Z 0218/0318 19017G25KT P6SM FEW070
     FM030000 17010KT P6SM SKC
     FM030900 18012KT P6SM BKN120
     FM031400 19018G25KT P6SM BKN120=

USA.gov is the U.S. government's official web portal to all federal, state and local government web resources and services.